createdAt,value
2023-05-14T00:00:31.867Z,99.99
2023-05-14T00:01:31.810Z,99.99
2023-05-14T00:02:31.925Z,99.99
2023-05-14T00:03:31.894Z,99.99
2023-05-14T00:04:31.808Z,99.99
2023-05-14T00:05:31.744Z,99.99
2023-05-14T00:06:31.738Z,99.99
2023-05-14T00:07:31.746Z,99.99
2023-05-14T00:08:31.693Z,99.99
2023-05-14T00:09:31.684Z,99.99
2023-05-14T00:10:31.677Z,99.99
2023-05-14T00:11:31.671Z,99.99
2023-05-14T00:12:31.692Z,99.99
2023-05-14T00:13:31.630Z,99.99
2023-05-14T00:14:31.602Z,99.99
2023-05-14T00:15:34.119Z,99.99
2023-05-14T00:16:31.648Z,99.99
2023-05-14T00:17:31.626Z,99.99
2023-05-14T00:18:31.581Z,99.99
2023-05-14T00:19:31.622Z,99.99
2023-05-14T00:20:31.564Z,99.99
2023-05-14T00:21:31.511Z,99.99
2023-05-14T00:22:31.495Z,99.99
2023-05-14T00:23:31.521Z,99.99
2023-05-14T00:24:31.502Z,99.99
2023-05-14T00:25:31.465Z,99.99
2023-05-14T00:26:31.447Z,99.99
2023-05-14T00:27:31.431Z,99.99
2023-05-14T00:28:31.449Z,99.99
2023-05-14T00:29:31.400Z,99.99
2023-05-14T00:30:41.165Z,99.99
2023-05-14T00:31:39.117Z,99.99
2023-05-14T00:32:38.934Z,99.99
2023-05-14T00:33:39.045Z,99.99
2023-05-14T00:34:41.202Z,99.99
2023-05-14T00:35:38.866Z,99.99
2023-05-14T00:36:40.102Z,99.99
2023-05-14T00:37:38.932Z,99.99
2023-05-14T00:38:38.889Z,99.99
2023-05-14T00:39:40.079Z,99.99
2023-05-14T00:40:38.855Z,99.99
2023-05-14T00:41:40.063Z,99.99
2023-05-14T00:42:31.270Z,99.99
2023-05-14T00:43:31.240Z,99.99
2023-05-14T00:44:31.213Z,99.99
2023-05-14T00:45:31.207Z,99.99
2023-05-14T00:46:31.255Z,99.99
2023-05-14T00:47:31.215Z,99.99
2023-05-14T00:48:31.173Z,99.99
2023-05-14T00:49:31.164Z,99.99
2023-05-14T00:50:31.163Z,99.99
2023-05-14T00:51:31.157Z,99.99
2023-05-14T00:52:31.149Z,99.99
2023-05-14T00:53:31.175Z,99.99
2023-05-14T00:54:31.089Z,99.99
2023-05-14T00:55:31.070Z,99.99
2023-05-14T00:56:31.066Z,99.99
2023-05-14T00:57:31.104Z,99.99
2023-05-14T00:58:31.011Z,99.99
2023-05-14T00:59:31.026Z,99.99
2023-05-14T01:00:31.035Z,99.99
2023-05-14T01:01:31.075Z,99.99
2023-05-14T01:02:30.999Z,99.99
2023-05-14T01:03:31.011Z,99.99
2023-05-14T01:04:30.980Z,99.99
2023-05-14T01:05:30.940Z,99.99
2023-05-14T01:06:30.907Z,99.99
2023-05-14T01:07:30.917Z,99.99
2023-05-14T01:08:30.892Z,99.99
2023-05-14T01:09:30.896Z,99.99
2023-05-14T01:10:30.880Z,99.99
2023-05-14T01:11:30.893Z,99.99
2023-05-14T01:12:30.835Z,99.99
2023-05-14T01:13:30.840Z,99.99
2023-05-14T01:14:30.813Z,99.99
2023-05-14T01:15:30.830Z,99.99
2023-05-14T01:16:30.810Z,99.99
2023-05-14T01:17:30.880Z,99.99
2023-05-14T01:18:30.782Z,99.99
2023-05-14T01:19:30.762Z,99.99
2023-05-14T01:20:30.738Z,99.99
2023-05-14T01:21:30.742Z,99.99
2023-05-14T01:22:30.748Z,99.99
2023-05-14T01:23:30.723Z,99.99
2023-05-14T01:24:30.695Z,99.99
2023-05-14T01:25:30.707Z,99.99
2023-05-14T01:26:30.703Z,99.99
2023-05-14T01:27:39.440Z,99.99
2023-05-14T01:28:30.643Z,99.99
2023-05-14T01:29:36.389Z,99.99
2023-05-14T01:30:58.540Z,99.99
2023-05-14T01:31:33.285Z,99.99
2023-05-14T01:32:53.515Z,99.99
2023-05-14T01:33:40.287Z,99.99
2023-05-14T01:35:01.409Z,99.99
2023-05-14T01:35:39.787Z,99.99
2023-05-14T01:36:36.700Z,99.99
2023-05-14T01:37:30.496Z,99.99
2023-05-14T01:38:45.844Z,99.99
2023-05-14T01:39:43.959Z,99.99
2023-05-14T01:40:30.478Z,99.99
2023-05-14T01:41:30.467Z,99.99
2023-05-14T01:42:41.839Z,99.99
2023-05-14T01:43:31.702Z,99.99
2023-05-14T01:44:31.856Z,99.99
2023-05-14T01:45:31.753Z,99.99
2023-05-14T01:46:35.629Z,99.99
2023-05-14T01:47:31.459Z,99.99
2023-05-14T01:48:30.417Z,99.99
2023-05-14T01:49:30.344Z,99.99
2023-05-14T01:50:30.355Z,99.99
2023-05-14T01:51:30.313Z,99.99
2023-05-14T01:52:32.236Z,99.99
2023-05-14T01:53:30.309Z,99.99
2023-05-14T01:54:30.269Z,99.99
2023-05-14T01:55:30.260Z,99.99
2023-05-14T01:56:35.114Z,99.99
2023-05-14T01:57:33.536Z,99.99
2023-05-14T01:58:37.281Z,99.99
2023-05-14T01:59:34.095Z,99.99
2023-05-14T02:00:45.037Z,99.99
2023-05-14T02:01:39.600Z,99.99
2023-05-14T02:02:37.757Z,99.99
2023-05-14T02:03:30.208Z,99.99
2023-05-14T02:04:30.595Z,99.99
2023-05-14T02:05:30.168Z,99.99
2023-05-14T02:06:30.113Z,99.99
2023-05-14T02:07:30.780Z,99.99
2023-05-14T02:08:30.087Z,99.99
2023-05-14T02:09:31.175Z,99.99
2023-05-14T02:10:30.177Z,99.99
2023-05-14T02:11:30.697Z,99.99
2023-05-14T02:12:40.778Z,99.99
2023-05-14T02:13:36.987Z,99.99
2023-05-14T02:14:31.059Z,99.99
2023-05-14T02:15:30.008Z,99.99
2023-05-14T02:16:30.044Z,99.99
2023-05-14T02:17:36.420Z,99.99
2023-05-14T02:18:51.590Z,99.99
2023-05-14T02:19:30.977Z,99.99
2023-05-14T02:20:29.961Z,99.99
2023-05-14T02:21:29.960Z,99.99
2023-05-14T02:22:29.905Z,99.99
2023-05-14T02:23:40.346Z,99.99
2023-05-14T02:24:34.069Z,99.99
2023-05-14T02:25:29.880Z,99.99
2023-05-14T02:26:41.798Z,99.99
2023-05-14T02:27:29.899Z,99.99
2023-05-14T02:28:35.796Z,99.99
2023-05-14T02:29:29.845Z,99.99
2023-05-14T02:30:32.736Z,99.99
2023-05-14T02:31:32.722Z,99.99
2023-05-14T02:32:30.873Z,99.99
2023-05-14T02:33:29.835Z,99.99
2023-05-14T02:34:29.743Z,99.99
2023-05-14T02:35:29.744Z,99.99
2023-05-14T02:36:29.778Z,99.99
2023-05-14T02:37:29.737Z,99.99
2023-05-14T02:38:29.720Z,99.99
2023-05-14T02:39:29.718Z,99.99
2023-05-14T02:40:30.678Z,99.99
2023-05-14T02:41:38.528Z,99.99
2023-05-14T02:42:39.643Z,99.99
2023-05-14T02:44:36.889Z,99.99
2023-05-14T02:46:21.730Z,99.99
2023-05-14T02:47:24.922Z,99.99
2023-05-14T02:48:24.112Z,99.99
2023-05-14T02:49:29.869Z,99.99
2023-05-14T02:50:28.319Z,99.99
2023-05-14T02:51:22.612Z,99.99
2023-05-14T02:52:23.965Z,99.99
2023-05-14T02:53:23.462Z,99.99
2023-05-14T02:54:21.020Z,99.99
2023-05-14T02:55:20.892Z,99.99
2023-05-14T02:56:20.976Z,99.99
2023-05-14T02:57:20.883Z,99.99
2023-05-14T02:58:24.554Z,99.99
2023-05-14T02:59:21.839Z,99.99
2023-05-14T03:00:20.808Z,99.99
2023-05-14T03:01:20.902Z,99.99
2023-05-14T03:02:20.834Z,99.99
2023-05-14T03:03:20.820Z,99.99
2023-05-14T03:04:20.743Z,99.99
2023-05-14T03:05:20.754Z,99.99
2023-05-14T03:06:20.742Z,99.99
2023-05-14T03:07:20.775Z,99.99
2023-05-14T03:08:20.705Z,99.99
2023-05-14T03:09:20.839Z,99.99
2023-05-14T03:10:20.718Z,99.99
2023-05-14T03:11:20.670Z,99.99
2023-05-14T03:12:20.653Z,99.99
2023-05-14T03:13:20.653Z,99.99
2023-05-14T03:14:20.657Z,99.99
2023-05-14T03:15:20.635Z,99.99
2023-05-14T03:16:20.727Z,99.99
2023-05-14T03:17:20.667Z,99.99
2023-05-14T03:18:20.619Z,99.99
2023-05-14T03:19:20.583Z,99.99
2023-05-14T03:20:20.618Z,99.99
2023-05-14T03:21:20.555Z,99.99
2023-05-14T03:22:20.534Z,99.99
2023-05-14T03:23:20.576Z,99.99
2023-05-14T03:24:20.523Z,99.99
2023-05-14T03:25:20.546Z,99.99
2023-05-14T03:26:20.545Z,99.99
2023-05-14T03:27:20.579Z,99.99
2023-05-14T03:28:20.508Z,99.99
2023-05-14T03:29:20.486Z,99.99
2023-05-14T03:30:20.595Z,99.99
2023-05-14T03:31:20.575Z,99.99
2023-05-14T03:32:20.480Z,99.99
2023-05-14T03:33:20.430Z,99.99
2023-05-14T03:34:20.529Z,99.99
2023-05-14T03:35:20.396Z,99.99
2023-05-14T03:36:20.386Z,99.99
2023-05-14T03:37:20.366Z,99.99
2023-05-14T03:38:20.375Z,99.99
2023-05-14T03:39:20.333Z,99.99
2023-05-14T03:40:20.301Z,99.99
2023-05-14T03:41:20.346Z,99.99
2023-05-14T03:42:20.286Z,99.99
2023-05-14T03:43:20.298Z,99.99
2023-05-14T03:44:20.272Z,99.99
2023-05-14T03:45:20.262Z,99.99
2023-05-14T03:46:20.253Z,99.99
2023-05-14T03:47:20.209Z,99.99
2023-05-14T03:48:20.518Z,99.99
2023-05-14T03:49:20.203Z,99.99
2023-05-14T03:50:20.268Z,99.99
2023-05-14T03:51:20.198Z,99.99
2023-05-14T03:52:20.173Z,99.99
2023-05-14T03:53:20.147Z,99.99
2023-05-14T03:54:20.159Z,99.99
2023-05-14T03:55:20.229Z,99.99
2023-05-14T03:56:20.104Z,99.99
2023-05-14T03:57:20.076Z,99.99
2023-05-14T03:58:20.089Z,99.99
2023-05-14T03:59:20.074Z,99.99
2023-05-14T04:00:20.135Z,99.99
2023-05-14T04:01:20.099Z,99.99
2023-05-14T04:02:20.190Z,99.99
2023-05-14T04:03:20.094Z,99.99
2023-05-14T04:04:20.094Z,99.99
2023-05-14T04:05:20.021Z,99.99
2023-05-14T04:06:20.051Z,99.99
2023-05-14T04:07:19.971Z,99.99
2023-05-14T04:08:20.055Z,99.99
2023-05-14T04:09:20.003Z,99.99
2023-05-14T04:10:19.963Z,99.99
2023-05-14T04:11:19.916Z,99.99
2023-05-14T04:12:19.895Z,99.99
2023-05-14T04:13:19.906Z,99.99
2023-05-14T04:14:19.875Z,99.99
2023-05-14T04:15:19.881Z,99.99
2023-05-14T04:16:20.001Z,99.99
2023-05-14T04:17:20.024Z,99.99
2023-05-14T04:18:19.836Z,99.99
2023-05-14T04:19:19.924Z,99.99
2023-05-14T04:20:19.829Z,99.99
2023-05-14T04:21:19.789Z,99.99
2023-05-14T04:22:19.851Z,99.99
2023-05-14T04:23:19.769Z,99.99
2023-05-14T04:24:19.786Z,99.99
2023-05-14T04:25:19.804Z,99.99
2023-05-14T04:26:19.786Z,99.99
2023-05-14T04:27:19.720Z,99.99
2023-05-14T04:28:19.720Z,99.99
2023-05-14T04:29:19.763Z,99.99
2023-05-14T04:30:19.699Z,99.99
2023-05-14T04:31:19.825Z,99.99
2023-05-14T04:32:19.717Z,99.99
2023-05-14T04:33:19.640Z,99.99
2023-05-14T04:34:19.670Z,99.99
2023-05-14T04:35:20.219Z,99.99
2023-05-14T04:36:19.659Z,99.99
2023-05-14T04:37:19.718Z,99.99
2023-05-14T04:38:19.589Z,99.99
2023-05-14T04:39:19.659Z,99.99
2023-05-14T04:40:19.598Z,99.99
2023-05-14T04:41:19.637Z,99.99
2023-05-14T04:42:19.548Z,99.99
2023-05-14T04:43:19.563Z,99.99
2023-05-14T04:44:19.580Z,99.99
2023-05-14T04:45:19.501Z,99.99
2023-05-14T04:46:19.512Z,99.99
2023-05-14T04:47:19.533Z,99.99
2023-05-14T04:48:19.447Z,99.99
2023-05-14T04:49:19.440Z,99.99
2023-05-14T04:50:19.444Z,99.99
2023-05-14T04:51:19.408Z,99.99
2023-05-14T04:52:19.425Z,99.99
2023-05-14T04:53:19.446Z,99.99
2023-05-14T04:54:19.462Z,99.99
2023-05-14T04:55:19.402Z,99.99
2023-05-14T04:56:19.341Z,99.99
2023-05-14T04:57:19.336Z,99.99
2023-05-14T04:58:19.334Z,99.99
2023-05-14T04:59:19.300Z,99.99
2023-05-14T05:00:19.336Z,99.99
2023-05-14T05:01:19.384Z,99.99
2023-05-14T05:02:19.433Z,99.99
2023-05-14T05:03:19.367Z,99.99
2023-05-14T05:04:19.351Z,99.99
2023-05-14T05:05:19.251Z,99.99
2023-05-14T05:06:19.337Z,99.99
2023-05-14T05:07:19.221Z,99.99
2023-05-14T05:08:19.248Z,99.99
2023-05-14T05:09:19.221Z,99.99
2023-05-14T05:10:19.267Z,99.99
2023-05-14T05:11:19.161Z,99.99
2023-05-14T05:12:19.264Z,99.99
2023-05-14T05:13:19.123Z,99.99
2023-05-14T05:14:19.146Z,99.99
2023-05-14T05:15:19.104Z,99.99
2023-05-14T05:16:19.181Z,99.99
2023-05-14T05:17:19.114Z,99.99
2023-05-14T05:18:19.067Z,99.99
2023-05-14T05:19:22.431Z,99.99
2023-05-14T05:20:20.047Z,99.99
2023-05-14T05:21:19.049Z,99.99
2023-05-14T05:22:19.026Z,99.99
2023-05-14T05:23:19.003Z,99.99
2023-05-14T05:24:19.051Z,99.99
2023-05-14T05:25:18.940Z,99.99
2023-05-14T05:26:18.943Z,99.99
2023-05-14T05:27:18.913Z,99.99
2023-05-14T05:28:18.946Z,99.99
2023-05-14T05:29:18.930Z,99.99
2023-05-14T05:30:18.906Z,99.99
2023-05-14T05:31:19.908Z,99.99
2023-05-14T05:32:18.905Z,99.99
2023-05-14T05:33:18.870Z,99.99
2023-05-14T05:34:18.860Z,99.99
2023-05-14T05:35:18.841Z,99.99
2023-05-14T05:36:18.869Z,99.99
2023-05-14T05:37:18.972Z,99.99
2023-05-14T05:38:18.798Z,99.87
2023-05-14T05:39:18.785Z,99.36
2023-05-14T05:40:18.758Z,97.78
2023-05-14T05:41:18.727Z,97.64
2023-05-14T05:42:18.809Z,96.92
2023-05-14T05:43:18.776Z,96.47
2023-05-14T05:44:18.749Z,96.47
2023-05-14T05:45:18.688Z,96.68
2023-05-14T05:46:18.724Z,94.69
2023-05-14T05:47:18.664Z,95.30
2023-05-14T05:48:18.650Z,95.30
2023-05-14T05:49:18.604Z,95.70
2023-05-14T05:50:20.218Z,95.70
2023-05-14T05:51:18.586Z,95.40
2023-05-14T05:52:18.581Z,95.70
2023-05-14T05:53:18.598Z,95.00
2023-05-14T05:54:18.628Z,94.64
2023-05-14T05:55:18.504Z,93.59
2023-05-14T05:56:18.521Z,92.63
2023-05-14T05:57:18.500Z,92.22
2023-05-14T05:58:18.519Z,91.75
2023-05-14T05:59:18.533Z,91.14
2023-05-14T06:00:18.440Z,89.72
2023-05-14T06:01:18.461Z,90.33
2023-05-14T06:02:18.465Z,90.33
2023-05-14T06:03:18.498Z,89.68
2023-05-14T06:04:18.389Z,88.76
2023-05-14T06:05:18.428Z,89.28
2023-05-14T06:06:18.369Z,89.68
2023-05-14T06:07:18.382Z,89.78
2023-05-14T06:08:18.348Z,89.37
2023-05-14T06:09:18.811Z,89.48
2023-05-14T06:10:19.031Z,89.68
2023-05-14T06:11:18.310Z,89.37
2023-05-14T06:12:18.280Z,89.37
2023-05-14T06:13:18.839Z,89.88
2023-05-14T06:14:18.239Z,90.49
2023-05-14T06:15:18.301Z,90.90
2023-05-14T06:16:18.366Z,90.59
2023-05-14T06:17:18.240Z,90.80
2023-05-14T06:18:18.199Z,90.55
2023-05-14T06:19:18.286Z,90.66
2023-05-14T06:20:18.356Z,90.09
2023-05-14T06:21:18.172Z,89.98
2023-05-14T06:22:18.157Z,89.88
2023-05-14T06:23:18.131Z,90.19
2023-05-14T06:24:18.106Z,90.19
2023-05-14T06:25:18.104Z,90.19
2023-05-14T06:26:18.073Z,89.88
2023-05-14T06:27:18.068Z,90.19
2023-05-14T06:28:18.074Z,90.29
2023-05-14T06:29:18.098Z,90.09
2023-05-14T06:30:18.039Z,90.14
2023-05-14T06:31:18.072Z,90.25
2023-05-14T06:32:18.165Z,90.05
2023-05-14T06:33:20.017Z,90.05
2023-05-14T06:34:17.976Z,89.94
2023-05-14T06:35:17.953Z,88.01
2023-05-14T06:36:18.015Z,88.21
2023-05-14T06:37:17.973Z,88.78
2023-05-14T06:38:17.956Z,89.09
2023-05-14T06:39:17.939Z,88.48
2023-05-14T06:40:17.939Z,87.87
2023-05-14T06:41:17.926Z,87.26
2023-05-14T06:42:17.929Z,87.37
2023-05-14T06:43:17.888Z,86.65
2023-05-14T06:44:17.875Z,86.71
2023-05-14T06:45:17.968Z,86.71
2023-05-14T06:46:17.849Z,86.77
2023-05-14T06:47:17.887Z,86.77
2023-05-14T06:48:17.916Z,87.08
2023-05-14T06:49:17.841Z,86.53
2023-05-14T06:50:17.765Z,86.53
2023-05-14T06:51:17.786Z,85.52
2023-05-14T06:52:17.855Z,86.02
2023-05-14T06:53:17.752Z,85.58
2023-05-14T06:54:17.797Z,85.58
2023-05-14T06:55:17.703Z,85.38
2023-05-14T06:56:17.682Z,84.97
2023-05-14T06:57:17.649Z,84.83
2023-05-14T06:58:17.808Z,84.22
2023-05-14T06:59:17.681Z,83.98
2023-05-14T07:00:17.707Z,83.17
2023-05-14T07:01:17.696Z,83.47
2023-05-14T07:02:17.719Z,83.64
2023-05-14T07:03:17.658Z,83.03
2023-05-14T07:04:17.604Z,82.93
2023-05-14T07:05:17.593Z,81.82
2023-05-14T07:06:17.578Z,81.51
2023-05-14T07:07:17.666Z,78.82
2023-05-14T07:08:17.597Z,80.20
2023-05-14T07:09:17.559Z,79.29
2023-05-14T07:10:17.503Z,78.85
2023-05-14T07:11:17.522Z,79.46
2023-05-14T07:12:17.505Z,79.35
2023-05-14T07:13:17.508Z,79.25
2023-05-14T07:14:17.507Z,79.05
2023-05-14T07:15:18.553Z,79.15
2023-05-14T07:16:18.997Z,79.15
2023-05-14T07:17:17.562Z,79.92
2023-05-14T07:18:19.122Z,79.79
2023-05-14T07:19:19.031Z,78.53
2023-05-14T07:20:18.904Z,77.79
2023-05-14T07:21:18.132Z,76.44
2023-05-14T07:22:17.463Z,75.60
2023-05-14T07:23:19.780Z,75.36
2023-05-14T07:24:18.701Z,73.05
2023-05-14T07:25:17.304Z,72.81
2023-05-14T07:26:17.289Z,72.71
2023-05-14T07:27:17.329Z,72.00
2023-05-14T07:28:17.256Z,71.67
2023-05-14T07:29:17.280Z,72.27
2023-05-14T07:30:17.273Z,70.63
2023-05-14T07:31:17.290Z,69.56
2023-05-14T07:32:17.227Z,70.29
2023-05-14T07:33:17.184Z,69.32
2023-05-14T07:34:17.195Z,71.03
2023-05-14T07:35:17.151Z,71.70
2023-05-14T07:36:17.185Z,70.70
2023-05-14T07:37:17.141Z,70.39
2023-05-14T07:38:17.135Z,70.09
2023-05-14T07:39:17.157Z,70.79
2023-05-14T07:40:17.183Z,69.85
2023-05-14T07:41:17.133Z,70.96
2023-05-14T07:42:28.039Z,71.47
2023-05-14T07:43:18.180Z,71.47
2023-05-14T07:44:17.097Z,70.79
2023-05-14T07:45:17.024Z,70.39
2023-05-14T07:46:17.088Z,69.99
2023-05-14T07:47:17.121Z,70.29
2023-05-14T07:48:17.243Z,71.13
2023-05-14T07:49:17.073Z,69.82
2023-05-14T07:50:16.939Z,70.53
2023-05-14T07:51:16.997Z,71.64
2023-05-14T07:52:16.938Z,70.62
2023-05-14T07:53:16.930Z,70.90
2023-05-14T07:54:17.046Z,72.00
2023-05-14T07:55:16.995Z,70.56
2023-05-14T07:56:16.934Z,70.46
2023-05-14T07:57:16.976Z,68.44
2023-05-14T07:58:16.876Z,69.12
2023-05-14T07:59:16.860Z,68.71
2023-05-14T08:00:16.847Z,68.88
2023-05-14T08:01:16.833Z,69.29
2023-05-14T08:02:17.176Z,67.58
2023-05-14T08:03:16.898Z,67.88
2023-05-14T08:04:16.797Z,67.78
2023-05-14T08:05:16.761Z,68.38
2023-05-14T08:06:16.800Z,67.98
2023-05-14T08:07:16.807Z,67.78
2023-05-14T08:08:16.780Z,69.29
2023-05-14T08:09:16.835Z,68.08
2023-05-14T08:10:16.816Z,67.58
2023-05-14T08:11:16.713Z,68.88
2023-05-14T08:12:16.719Z,66.67
2023-05-14T08:13:16.674Z,66.07
2023-05-14T08:14:16.690Z,65.87
2023-05-14T08:15:16.686Z,65.56
2023-05-14T08:16:16.686Z,65.94
2023-05-14T08:17:16.740Z,66.24
2023-05-14T08:18:16.580Z,65.10
2023-05-14T08:19:16.955Z,64.90
2023-05-14T08:20:16.563Z,64.57
2023-05-14T08:21:16.645Z,63.06
2023-05-14T08:22:16.552Z,63.79
2023-05-14T08:23:16.543Z,65.37
2023-05-14T08:24:16.664Z,64.37
2023-05-14T08:25:16.530Z,62.66
2023-05-14T08:26:16.487Z,63.06
2023-05-14T08:27:16.472Z,62.16
2023-05-14T08:28:16.480Z,62.46
2023-05-14T08:29:16.932Z,64.67
2023-05-14T08:30:16.442Z,65.88
2023-05-14T08:31:16.461Z,63.87
2023-05-14T08:32:23.531Z,63.17
2023-05-14T08:33:17.468Z,63.26
2023-05-14T08:34:16.439Z,62.26
2023-05-14T08:35:16.413Z,62.66
2023-05-14T08:36:16.405Z,62.26
2023-05-14T08:37:16.327Z,62.76
2023-05-14T08:38:16.389Z,62.76
2023-05-14T08:39:16.302Z,62.16
2023-05-14T08:40:16.343Z,62.76
2023-05-14T08:41:16.447Z,61.86
2023-05-14T08:42:16.336Z,62.46
2023-05-14T08:43:16.266Z,61.76
2023-05-14T08:44:16.255Z,61.55
2023-05-14T08:45:16.383Z,62.53
2023-05-14T08:46:16.262Z,61.05
2023-05-14T08:47:16.210Z,60.55
2023-05-14T08:48:16.282Z,60.96
2023-05-14T08:49:16.216Z,61.15
2023-05-14T08:50:16.275Z,60.72
2023-05-14T08:51:16.208Z,60.19
2023-05-14T08:52:16.138Z,59.89
2023-05-14T08:53:16.113Z,59.49
2023-05-14T08:54:16.157Z,58.59
2023-05-14T08:55:16.096Z,59.19
2023-05-14T08:56:16.133Z,58.06
2023-05-14T08:57:16.088Z,58.46
2023-05-14T08:58:16.043Z,57.96
2023-05-14T08:59:16.132Z,58.16
2023-05-14T09:00:16.039Z,57.06
2023-05-14T09:01:16.140Z,58.06
2023-05-14T09:02:16.007Z,58.06
2023-05-14T09:03:16.091Z,56.65
2023-05-14T09:04:16.081Z,55.98
2023-05-14T09:05:16.074Z,57.68
2023-05-14T09:06:16.125Z,58.39
2023-05-14T09:07:15.949Z,58.39
2023-05-14T09:08:15.903Z,57.18
2023-05-14T09:09:15.991Z,58.09
2023-05-14T09:10:15.994Z,57.79
2023-05-14T09:11:15.972Z,57.79
2023-05-14T09:12:16.970Z,58.89
2023-05-14T09:13:15.903Z,57.46
2023-05-14T09:14:15.949Z,58.66
2023-05-14T09:15:15.820Z,57.26
2023-05-14T09:16:15.923Z,56.93
2023-05-14T09:17:15.850Z,56.63
2023-05-14T09:18:15.858Z,57.33
2023-05-14T09:19:15.998Z,56.60
2023-05-14T09:20:15.925Z,58.87
2023-05-14T09:21:17.282Z,54.74
2023-05-14T09:22:18.966Z,54.64
2023-05-14T09:23:15.762Z,55.24
2023-05-14T09:24:15.844Z,55.05
2023-05-14T09:25:15.747Z,52.37
2023-05-14T09:26:15.830Z,53.32
2023-05-14T09:27:15.703Z,53.92
2023-05-14T09:28:15.734Z,54.82
2023-05-14T09:29:15.679Z,56.83
2023-05-14T09:30:15.642Z,55.43
2023-05-14T09:31:15.659Z,56.73
2023-05-14T09:32:15.660Z,55.63
2023-05-14T09:33:15.671Z,52.92
2023-05-14T09:34:15.561Z,52.52
2023-05-14T09:35:15.576Z,55.63
2023-05-14T09:36:15.577Z,55.02
2023-05-14T09:37:15.587Z,53.62
2023-05-14T09:38:15.593Z,53.52
2023-05-14T09:39:15.594Z,52.52
2023-05-14T09:40:15.589Z,52.69
2023-05-14T09:41:15.503Z,53.00
2023-05-14T09:42:15.475Z,52.19
2023-05-14T09:43:15.557Z,53.19
2023-05-14T09:44:15.486Z,51.69
2023-05-14T09:45:15.422Z,51.69
2023-05-14T09:46:15.416Z,51.29
2023-05-14T09:47:15.466Z,52.37
2023-05-14T09:48:15.429Z,52.87
2023-05-14T09:49:15.442Z,52.57
2023-05-14T09:50:15.432Z,51.46
2023-05-14T09:51:15.362Z,49.87
2023-05-14T09:52:15.449Z,50.57
2023-05-14T09:53:15.343Z,50.67
2023-05-14T09:54:15.352Z,50.07
2023-05-14T09:55:15.309Z,51.57
2023-05-14T09:56:15.364Z,52.39
2023-05-14T09:57:15.268Z,52.89
2023-05-14T09:58:15.256Z,50.59
2023-05-14T09:59:15.328Z,50.96
2023-05-14T10:00:15.205Z,50.67
2023-05-14T10:01:15.249Z,49.96
2023-05-14T10:02:15.204Z,50.64
2023-05-14T10:03:17.213Z,51.02
2023-05-14T10:04:16.149Z,48.94
2023-05-14T10:05:15.229Z,48.34
2023-05-14T10:06:15.176Z,49.34
2023-05-14T10:07:15.159Z,49.84
2023-05-14T10:08:15.104Z,50.32
2023-05-14T10:09:15.111Z,50.72
2023-05-14T10:10:15.110Z,50.62
2023-05-14T10:11:15.113Z,50.12
2023-05-14T10:12:15.158Z,50.04
2023-05-14T10:13:15.124Z,50.82
2023-05-14T10:14:16.155Z,49.82
2023-05-14T10:15:15.052Z,50.32
2023-05-14T10:16:15.058Z,51.42
2023-05-14T10:17:15.114Z,47.92
2023-05-14T10:18:15.136Z,47.44
2023-05-14T10:19:16.581Z,49.24
2023-05-14T10:20:15.051Z,48.04
2023-05-14T10:21:14.957Z,47.24
2023-05-14T10:22:15.499Z,48.04
2023-05-14T10:23:15.193Z,45.84
2023-05-14T10:24:15.778Z,47.54
2023-05-14T10:25:14.973Z,47.94
2023-05-14T10:26:15.881Z,49.02
2023-05-14T10:27:15.427Z,49.11
2023-05-14T10:28:14.864Z,48.61
2023-05-14T10:29:17.299Z,46.42
2023-05-14T10:30:16.305Z,45.43
2023-05-14T10:31:16.839Z,46.92
2023-05-14T10:32:14.858Z,46.31
2023-05-14T10:33:15.388Z,46.62
2023-05-14T10:34:14.877Z,47.92
2023-05-14T10:35:16.053Z,50.59
2023-05-14T10:36:14.781Z,47.37
2023-05-14T10:37:14.792Z,46.17
2023-05-14T10:38:14.777Z,46.87
2023-05-14T10:39:14.885Z,48.35
2023-05-14T10:40:14.783Z,47.72
2023-05-14T10:41:14.717Z,45.81
2023-05-14T10:42:14.730Z,45.71
2023-05-14T10:43:14.784Z,45.39
2023-05-14T10:44:14.663Z,44.96
2023-05-14T10:45:14.649Z,44.02
2023-05-14T10:46:14.774Z,45.24
2023-05-14T10:47:14.611Z,47.24
2023-05-14T10:48:14.655Z,44.49
2023-05-14T10:49:14.661Z,45.89
2023-05-14T10:50:14.666Z,44.19
2023-05-14T10:51:14.603Z,45.31
2023-05-14T10:52:16.001Z,43.51
2023-05-14T10:53:14.516Z,44.43
2023-05-14T10:54:14.559Z,42.76
2023-05-14T10:55:15.922Z,43.85
2023-05-14T10:56:15.315Z,44.55
2023-05-14T10:57:17.174Z,44.85
2023-05-14T10:58:15.135Z,43.33
2023-05-14T10:59:14.614Z,44.75
2023-05-14T11:00:14.929Z,45.57
2023-05-14T11:01:14.400Z,45.87
2023-05-14T11:02:15.179Z,46.19
2023-05-14T11:03:14.472Z,45.57
2023-05-14T11:04:14.592Z,45.55
2023-05-14T11:05:14.627Z,44.61
2023-05-14T11:06:15.316Z,43.95
2023-05-14T11:07:14.333Z,44.47
2023-05-14T11:08:14.454Z,43.99
2023-05-14T11:09:14.353Z,43.79
2023-05-14T11:10:14.335Z,43.37
2023-05-14T11:11:14.490Z,42.77
2023-05-14T11:12:14.290Z,41.27
2023-05-14T11:13:14.299Z,43.15
2023-05-14T11:14:14.247Z,42.95
2023-05-14T11:15:14.298Z,42.73
2023-05-14T11:16:22.915Z,42.83
2023-05-14T11:17:15.384Z,42.41
2023-05-14T11:18:15.340Z,41.69
2023-05-14T11:19:14.279Z,42.65
2023-05-14T11:20:14.194Z,40.34
2023-05-14T11:21:14.225Z,42.31
2023-05-14T11:22:14.174Z,39.78
2023-05-14T11:23:14.112Z,38.26
2023-05-14T11:24:14.151Z,38.34
2023-05-14T11:25:14.127Z,39.41
2023-05-14T11:26:14.174Z,38.73
2023-05-14T11:27:14.182Z,37.36
2023-05-14T11:28:14.074Z,37.68
2023-05-14T11:29:14.120Z,40.26
2023-05-14T11:30:14.114Z,38.65
2023-05-14T11:31:14.046Z,37.90
2023-05-14T11:32:14.078Z,37.32
2023-05-14T11:33:14.066Z,37.38
2023-05-14T11:34:14.019Z,34.92
2023-05-14T11:35:14.003Z,35.58
2023-05-14T11:36:13.973Z,35.91
2023-05-14T11:37:13.967Z,36.44
2023-05-14T11:38:14.009Z,37.58
2023-05-14T11:39:13.950Z,39.37
2023-05-14T11:40:13.941Z,41.30
2023-05-14T11:41:13.965Z,41.41
2023-05-14T11:42:13.915Z,42.21
2023-05-14T11:43:13.911Z,43.41
2023-05-14T11:44:13.970Z,42.32
2023-05-14T11:45:13.934Z,43.21
2023-05-14T11:46:13.907Z,43.41
2023-05-14T11:47:13.903Z,42.60
2023-05-14T11:48:13.953Z,41.63
2023-05-14T11:49:13.777Z,41.28
2023-05-14T11:50:13.975Z,41.12
2023-05-14T11:51:13.737Z,40.62
2023-05-14T11:52:13.864Z,39.90
2023-05-14T11:53:13.820Z,38.77
2023-05-14T11:54:13.760Z,38.83
2023-05-14T11:55:13.856Z,38.75
2023-05-14T11:56:13.701Z,39.23
2023-05-14T11:57:13.727Z,39.03
2023-05-14T11:58:13.668Z,38.92
2023-05-14T11:59:13.687Z,40.20
2023-05-14T12:00:13.648Z,39.05
2023-05-14T12:01:13.646Z,38.87
2023-05-14T12:02:13.625Z,39.54
2023-05-14T12:03:13.771Z,40.64
2023-05-14T12:04:13.631Z,40.28
2023-05-14T12:05:13.634Z,39.84
2023-05-14T12:06:13.576Z,41.08
2023-05-14T12:07:13.536Z,41.97
2023-05-14T12:08:13.575Z,42.29
2023-05-14T12:09:13.588Z,41.16
2023-05-14T12:10:13.642Z,41.31
2023-05-14T12:11:13.515Z,42.45
2023-05-14T12:12:13.488Z,42.29
2023-05-14T12:13:13.496Z,43.33
2023-05-14T12:14:13.586Z,43.37
2023-05-14T12:15:13.541Z,44.59
2023-05-14T12:16:13.569Z,45.39
2023-05-14T12:17:13.455Z,46.50
2023-05-14T12:18:23.487Z,45.69
2023-05-14T12:19:14.484Z,46.42
2023-05-14T12:20:13.374Z,44.21
2023-05-14T12:21:13.342Z,43.63
2023-05-14T12:22:13.476Z,41.83
2023-05-14T12:23:13.400Z,42.43
2023-05-14T12:24:13.331Z,42.13
2023-05-14T12:25:13.467Z,40.93
2023-05-14T12:26:13.389Z,41.24
2023-05-14T12:27:13.386Z,41.03
2023-05-14T12:28:13.321Z,40.43
2023-05-14T12:29:13.517Z,41.53
2023-05-14T12:30:21.328Z,40.23
2023-05-14T12:31:14.453Z,39.53
2023-05-14T12:32:13.210Z,39.83
2023-05-14T12:33:13.282Z,40.23
2023-05-14T12:34:13.211Z,40.13
2023-05-14T12:35:13.350Z,40.83
2023-05-14T12:36:21.171Z,41.74
2023-05-14T12:37:14.223Z,40.63
2023-05-14T12:38:13.264Z,40.81
2023-05-14T12:39:13.105Z,41.11
2023-05-14T12:40:13.324Z,40.41
2023-05-14T12:41:13.203Z,41.19
2023-05-14T12:42:13.098Z,41.24
2023-05-14T12:43:13.146Z,39.82
2023-05-14T12:44:13.049Z,40.00
2023-05-14T12:45:13.121Z,39.06
2023-05-14T12:46:13.010Z,41.42
2023-05-14T12:47:13.133Z,45.33
2023-05-14T12:48:13.023Z,35.95
2023-05-14T12:49:13.008Z,35.64
2023-05-14T12:50:13.142Z,37.41
2023-05-14T12:51:12.954Z,34.86
2023-05-14T12:53:12.963Z,36.07
2023-05-14T12:54:12.920Z,37.40
2023-05-14T12:55:12.995Z,36.65